Woolstock, Iowa
Current Conditions -  °F | °C
As of 6:15 AM on Thursday 18 Dec 2014 (Local Time) from KEBS Reporting Station
Overcast Overcast  
Wind Chill:   Ceiling: 7000
Heat Index: 19°   Visibility: 10mi
Dew Point: 16°   Wind: 8mph
Humidity: 86%   Direction: 110°ESE
Pressure: 30.26"   Gusts: NA
Location:  42.57°N, 93.84°W
Report Text: KEBS 181215Z AUTO 11007KT 10SM OVC070 M07/M09 A3026 RMK AO2
Loading
Personal Weather Stations






























Interactive Weather Map New forecast layout! Learn more

10-Day Weather Forecast

Advertisements
Track Severe Weather on mobile